CheckWX is a tool to help pilots better visualize weather data.  It is not intended as a substitute for an official pre-flight weather briefing.

12:00:03 UTC

SARE METAR
Resistencia International Airport
Resistencia, Argentina
Current

60 mins ago

SARE 181100Z 16013KT CAVOK 14/14 Q1013
Observed
Aug-18 @ 11:00 UTC
Wind
  • 160° at 13 KTS
Visibility
10,000+ meters
Flight Rules
VFR
Cloud Levels
  • Clear skies
Temperature
14°C / 57°F
Dewpoint
14°C / 57°F
Humidity
100%
Altimeter
29.91" Hg
Pressure
1012.92 hPa
Previous

2 hours ago

SARE 181000Z 17013KT 9999 FEW043 BKN200 14/14 Q1012
Observed
Aug-18 @ 10:00 UTC
Wind
  • 170° at 13 KTS
Visibility
10,000+ meters
Flight Rules
VFR
Cloud Levels
  • Few at 4,300' AGL
  • Broken at 20,000' AGL
Temperature
14°C / 57°F
Dewpoint
14°C / 57°F
Humidity
100%
Altimeter
29.88" Hg
Pressure
1011.92 hPa
Previous

3 hours ago

SARE 180900Z 18012KT 9999 FEW043 BKN200 15/15 Q1012
Observed
Aug-18 @ 09:00 UTC
Wind
  • 180° at 12 KTS
Visibility
10,000+ meters
Flight Rules
VFR
Cloud Levels
  • Few at 4,300' AGL
  • Broken at 20,000' AGL
Temperature
15°C / 59°F
Dewpoint
15°C / 59°F
Humidity
100%
Altimeter
29.88" Hg
Pressure
1011.92 hPa